PWSweather.com
Personal Weather Stations
Station Observations
KNJOAKLA6
Oakland, NJ 07436

Oakland, NJ 07436

Lat: 41.041, Lon: -74.231

Elevation: 280

Station Type: Davis VP 2

http://stratacolorado.com/oaknjwx/

Latest ConditionsUpdated 7:20:00 PM EST Sunday, Nov 19, 2017
Currently Today's Max Today's Min Today's Average
Temperature 41.2°F5.1°C 56.0°F13.3°C 40.5°F4.7°C 46.0°F7.8°C
Dew Point 28.0°F-2.2°C 54.8°F12.7°C 27.1°F-2.7°C 37.4°F3.0°C
Winds Calm Calm 13.0 mph NW20.9 kmh NW - 4.0 mph 6.4 kmh
Wind Gusts 2.0 mph3.2 kmh 32.0 mph51.5 kmh - -
Humidity 59% 98% 52% 74%
Pressure 29.67 in1004.7 mb 29.67 in1004.7 mb 29.16 in987.5 mb -
Precipitation - 0.04 in1.0 mm - -
Hour Temp Dew Point Humidity Winds Wind Gusts Pressure Precip Precip Rate Daily Precip Total
07:20 PM 41.2°F5.1°C 28.0°F-2.2°C 59% Calm Calm 2.0 mph3.2 kmh 29.67 in1004.7 mb 0.00 in0.0 mm 0.00 in0.0 mm 0.04 in1.0 mm
07:10 PM 41.5°F5.3°C 28.2°F-2.1°C 59% Calm Calm 4.0 mph6.4 kmh 29.67 in1004.7 mb 0.00 in0.0 mm 0.00 in0.0 mm 0.04 in1.0 mm
07:00 PM 41.7°F5.4°C 28.0°F-2.2°C 58% 1.0 mph WNW1.6 kmh WNW 4.0 mph6.4 kmh 29.67 in1004.7 mb 0.00 in0.0 mm 0.00 in0.0 mm 0.04 in1.0 mm
06:50 PM 41.8°F5.4°C 28.1°F-2.2°C 58% Calm Calm 11.0 mph17.7 kmh 29.66 in1004.4 mb 0.00 in0.0 mm 0.00 in0.0 mm 0.04 in1.0 mm
06:40 PM 41.2°F5.1°C 27.1°F-2.7°C 57% 2.0 mph W3.2 kmh W 12.0 mph19.3 kmh 29.66 in1004.4 mb 0.00 in0.0 mm 0.00 in0.0 mm 0.04 in1.0 mm
06:30 PM 41.4°F5.2°C 27.3°F-2.6°C 57% Calm Calm 6.0 mph9.7 kmh 29.65 in1004.1 mb 0.00 in0.0 mm 0.00 in0.0 mm 0.04 in1.0 mm
06:20 PM 42.1°F5.6°C 27.1°F-2.7°C 55% 1.0 mph NW1.6 kmh NW 4.0 mph6.4 kmh 29.64 in1003.7 mb 0.00 in0.0 mm 0.00 in0.0 mm 0.04 in1.0 mm
06:10 PM 42.8°F6.0°C 27.3°F-2.6°C 54% 2.0 mph NW3.2 kmh NW 9.0 mph14.5 kmh 29.64 in1003.7 mb 0.00 in0.0 mm 0.00 in0.0 mm 0.04 in1.0 mm
06:00 PM 42.7°F5.9°C 28.1°F-2.2°C 56% 1.0 mph WNW1.6 kmh WNW 7.0 mph11.3 kmh 29.64 in1003.7 mb 0.00 in0.0 mm 0.00 in0.0 mm 0.04 in1.0 mm
05:50 PM 43.2°F6.2°C 27.7°F-2.4°C 54% 2.0 mph WSW3.2 kmh WSW 7.0 mph11.3 kmh 29.63 in1003.4 mb 0.00 in0.0 mm 0.00 in0.0 mm 0.04 in1.0 mm
05:40 PM 43.3°F6.3°C 27.3°F-2.6°C 53% 4.0 mph N6.4 kmh N 10.0 mph16.1 kmh 29.63 in1003.4 mb 0.00 in0.0 mm 0.00 in0.0 mm 0.04 in1.0 mm
05:30 PM 43.4°F6.3°C 27.4°F-2.6°C 53% 3.0 mph WNW4.8 kmh WNW 14.0 mph22.5 kmh 29.62 in1003.0 mb 0.00 in0.0 mm 0.00 in0.0 mm 0.04 in1.0 mm
05:20 PM 43.2°F6.2°C 27.7°F-2.4°C 54% 1.0 mph WNW1.6 kmh WNW 5.0 mph8.0 kmh 29.62 in1003.0 mb 0.00 in0.0 mm 0.00 in0.0 mm 0.04 in1.0 mm
05:10 PM 43.5°F6.4°C 28.4°F-2.0°C 55% 1.0 mph NW1.6 kmh NW 11.0 mph17.7 kmh 29.62 in1003.0 mb 0.00 in0.0 mm 0.00 in0.0 mm 0.04 in1.0 mm
05:00 PM 43.6°F6.4°C 27.6°F-2.4°C 53% 3.0 mph NW4.8 kmh NW 14.0 mph22.5 kmh 29.62 in1003.0 mb 0.00 in0.0 mm 0.00 in0.0 mm 0.04 in1.0 mm
04:50 PM 43.5°F6.4°C 28.0°F-2.2°C 54% 7.0 mph WNW11.3 kmh WNW 23.0 mph37.0 kmh 29.61 in1002.7 mb 0.00 in0.0 mm 0.00 in0.0 mm 0.04 in1.0 mm
04:40 PM 43.4°F6.3°C 28.3°F-2.1°C 55% 2.0 mph WSW3.2 kmh WSW 8.0 mph12.9 kmh 29.60 in1002.4 mb 0.00 in0.0 mm 0.00 in0.0 mm 0.04 in1.0 mm
04:30 PM 43.4°F6.3°C 27.9°F-2.3°C 54% 2.0 mph WNW3.2 kmh WNW 10.0 mph16.1 kmh 29.60 in1002.4 mb 0.00 in0.0 mm 0.00 in0.0 mm 0.04 in1.0 mm
04:20 PM 43.6°F6.4°C 28.1°F-2.2°C 54% 1.0 mph N1.6 kmh N 19.0 mph30.6 kmh 29.59 in1002.0 mb 0.00 in0.0 mm 0.00 in0.0 mm 0.04 in1.0 mm
04:10 PM 43.6°F6.4°C 28.5°F-1.9°C 55% 3.0 mph NNW4.8 kmh NNW 14.0 mph22.5 kmh 29.59 in1002.0 mb 0.00 in0.0 mm 0.00 in0.0 mm 0.04 in1.0 mm
04:00 PM 43.6°F6.4°C 28.1°F-2.2°C 54% 4.0 mph NNW6.4 kmh NNW 18.0 mph29.0 kmh 29.59 in1002.0 mb 0.00 in0.0 mm 0.00 in0.0 mm 0.04 in1.0 mm
03:50 PM 43.8°F6.6°C 28.2°F-2.1°C 54% 6.0 mph WNW9.7 kmh WNW 17.0 mph27.4 kmh 29.58 in1001.7 mb 0.00 in0.0 mm 0.00 in0.0 mm 0.04 in1.0 mm
03:40 PM 43.9°F6.6°C 27.4°F-2.6°C 52% 7.0 mph WNW11.3 kmh WNW 20.0 mph32.2 kmh 29.58 in1001.7 mb 0.00 in0.0 mm 0.00 in0.0 mm 0.04 in1.0 mm
03:30 PM 43.9°F6.6°C 28.3°F-2.1°C 54% 8.0 mph W12.9 kmh W 19.0 mph30.6 kmh 29.58 in1001.7 mb 0.00 in0.0 mm 0.00 in0.0 mm 0.04 in1.0 mm
03:20 PM 44.1°F6.7°C 29.0°F-1.7°C 55% 8.0 mph 12.9 kmh 25.0 mph40.2 kmh 29.57 in1001.4 mb 0.00 in0.0 mm 0.00 in0.0 mm 0.04 in1.0 mm
03:10 PM 44.4°F6.9°C 30.6°F-0.8°C 58% 8.0 mph NNW12.9 kmh NNW 16.0 mph25.7 kmh 29.57 in1001.4 mb 0.00 in0.0 mm 0.00 in0.0 mm 0.04 in1.0 mm
03:00 PM 44.6°F7.0°C 31.2°F-0.4°C 59% 2.0 mph NNW3.2 kmh NNW 19.0 mph30.6 kmh 29.55 in1000.7 mb 0.00 in0.0 mm 0.00 in0.0 mm 0.04 in1.0 mm
02:50 PM 44.8°F7.1°C 30.9°F-0.6°C 58% 3.0 mph WNW4.8 kmh WNW 19.0 mph30.6 kmh 29.54 in1000.3 mb 0.00 in0.0 mm 0.00 in0.0 mm 0.04 in1.0 mm
02:40 PM 44.9°F7.2°C 31.4°F-0.3°C 59% 6.0 mph WNW9.7 kmh WNW 21.0 mph33.8 kmh 29.54 in1000.3 mb 0.00 in0.0 mm 0.00 in0.0 mm 0.04 in1.0 mm
02:30 PM 44.9°F7.2°C 31.0°F-0.6°C 58% 7.0 mph NW11.3 kmh NW 15.0 mph24.1 kmh 29.53 in1000.0 mb 0.00 in0.0 mm 0.00 in0.0 mm 0.04 in1.0 mm
02:20 PM 44.7°F7.1°C 31.3°F-0.4°C 59% 3.0 mph NW4.8 kmh NW 13.0 mph20.9 kmh 29.53 in1000.0 mb 0.00 in0.0 mm 0.00 in0.0 mm 0.04 in1.0 mm
02:10 PM 44.8°F7.1°C 30.9°F-0.6°C 58% 9.0 mph WNW14.5 kmh WNW 22.0 mph35.4 kmh 29.53 in1000.0 mb 0.00 in0.0 mm 0.00 in0.0 mm 0.04 in1.0 mm
02:00 PM 45.2°F7.3°C 32.1°F0.1°C 60% 5.0 mph NNW8.0 kmh NNW 16.0 mph25.7 kmh 29.53 in1000.0 mb 0.00 in0.0 mm 0.00 in0.0 mm 0.04 in1.0 mm
01:50 PM 45.3°F7.4°C 31.0°F-0.6°C 57% 10.0 mph WNW16.1 kmh WNW 17.0 mph27.4 kmh 29.52 in999.7 mb 0.00 in0.0 mm 0.00 in0.0 mm 0.04 in1.0 mm
01:40 PM 45.6°F7.6°C 32.1°F0.1°C 59% 4.0 mph NW6.4 kmh NW 16.0 mph25.7 kmh 29.52 in999.7 mb 0.00 in0.0 mm 0.00 in0.0 mm 0.04 in1.0 mm
01:30 PM 45.9°F7.7°C 31.5°F-0.3°C 57% 8.0 mph W12.9 kmh W 22.0 mph35.4 kmh 29.52 in999.7 mb 0.00 in0.0 mm 0.00 in0.0 mm 0.04 in1.0 mm
01:20 PM 46.3°F7.9°C 31.0°F-0.6°C 55% 7.0 mph NW11.3 kmh NW 16.0 mph25.7 kmh 29.51 in999.3 mb 0.00 in0.0 mm 0.00 in0.0 mm 0.04 in1.0 mm
01:10 PM 46.3°F7.9°C 31.5°F-0.3°C 56% 9.0 mph NW14.5 kmh NW 20.0 mph32.2 kmh 29.50 in999.0 mb 0.00 in0.0 mm 0.00 in0.0 mm 0.04 in1.0 mm
01:00 PM 46.4°F8.0°C 31.6°F-0.2°C 56% 7.0 mph NW11.3 kmh NW 13.0 mph20.9 kmh 29.50 in999.0 mb 0.00 in0.0 mm 0.00 in0.0 mm 0.04 in1.0 mm
12:50 PM 47.0°F8.3°C 32.1°F0.1°C 56% 5.0 mph WNW8.0 kmh WNW 22.0 mph35.4 kmh 29.51 in999.3 mb 0.00 in0.0 mm 0.00 in0.0 mm 0.04 in1.0 mm
12:40 PM 48.0°F8.9°C 33.1°F0.6°C 56% 13.0 mph NW20.9 kmh NW 24.0 mph38.6 kmh 29.50 in999.0 mb 0.00 in0.0 mm 0.00 in0.0 mm 0.04 in1.0 mm
12:30 PM 47.5°F8.6°C 32.6°F0.3°C 56% 7.0 mph WNW11.3 kmh WNW 17.0 mph27.4 kmh 29.48 in998.3 mb 0.00 in0.0 mm 0.00 in0.0 mm 0.04 in1.0 mm
12:20 PM 47.1°F8.4°C 32.2°F0.1°C 56% 10.0 mph NW16.1 kmh NW 24.0 mph38.6 kmh 29.48 in998.3 mb 0.00 in0.0 mm 0.00 in0.0 mm 0.04 in1.0 mm
12:10 PM 47.8°F8.8°C 33.3°F0.7°C 57% 8.0 mph NW12.9 kmh NW 19.0 mph30.6 kmh 29.47 in998.0 mb 0.00 in0.0 mm 0.00 in0.0 mm 0.04 in1.0 mm
12:00 PM 47.5°F8.6°C 33.5°F0.8°C 58% 8.0 mph N12.9 kmh N 17.0 mph27.4 kmh 29.46 in997.6 mb 0.00 in0.0 mm 0.00 in0.0 mm 0.04 in1.0 mm
11:50 AM 46.3°F7.9°C 33.2°F0.7°C 60% 6.0 mph WNW9.7 kmh WNW 21.0 mph33.8 kmh 29.47 in998.0 mb 0.00 in0.0 mm 0.00 in0.0 mm 0.04 in1.0 mm
11:40 AM 46.1°F7.8°C 32.1°F0.1°C 58% 10.0 mph NW16.1 kmh NW 28.0 mph45.1 kmh 29.46 in997.6 mb 0.00 in0.0 mm 0.00 in0.0 mm 0.04 in1.0 mm
11:30 AM 46.6°F8.1°C 33.0°F0.6°C 59% 9.0 mph W14.5 kmh W 27.0 mph43.5 kmh 29.46 in997.6 mb 0.00 in0.0 mm 0.00 in0.0 mm 0.04 in1.0 mm
11:20 AM 47.5°F8.6°C 33.9°F1.1°C 59% 8.0 mph WNW12.9 kmh WNW 19.0 mph30.6 kmh 29.44 in997.0 mb 0.00 in0.0 mm 0.00 in0.0 mm 0.04 in1.0 mm
11:10 AM 48.1°F8.9°C 34.9°F1.6°C 60% 8.0 mph NNW12.9 kmh NNW 24.0 mph38.6 kmh 29.44 in997.0 mb 0.00 in0.0 mm 0.00 in0.0 mm 0.04 in1.0 mm
11:00 AM 48.0°F8.9°C 34.8°F1.6°C 60% 9.0 mph NW14.5 kmh NW 27.0 mph43.5 kmh 29.44 in997.0 mb 0.00 in0.0 mm 0.00 in0.0 mm 0.04 in1.0 mm
10:50 AM 47.4°F8.6°C 34.6°F1.4°C 61% 7.0 mph WNW11.3 kmh WNW 22.0 mph35.4 kmh 29.42 in996.3 mb 0.00 in0.0 mm 0.00 in0.0 mm 0.04 in1.0 mm
10:40 AM 48.2°F9.0°C 35.4°F1.9°C 61% 2.0 mph WNW3.2 kmh WNW 21.0 mph33.8 kmh 29.42 in996.3 mb 0.00 in0.0 mm 0.00 in0.0 mm 0.04 in1.0 mm
10:30 AM 48.4°F9.1°C 34.7°F1.5°C 59% 10.0 mph WNW16.1 kmh WNW 30.0 mph48.3 kmh 29.41 in995.9 mb 0.00 in0.0 mm 0.00 in0.0 mm 0.04 in1.0 mm
10:20 AM 48.3°F9.1°C 35.9°F2.2°C 62% 7.0 mph W11.3 kmh W 15.0 mph24.1 kmh 29.41 in995.9 mb 0.00 in0.0 mm 0.00 in0.0 mm 0.04 in1.0 mm
10:10 AM 48.0°F8.9°C 34.8°F1.6°C 60% 10.0 mph NW16.1 kmh NW 20.0 mph32.2 kmh 29.41 in995.9 mb 0.00 in0.0 mm 0.00 in0.0 mm 0.04 in1.0 mm
10:00 AM 48.8°F9.3°C 36.4°F2.4°C 62% 10.0 mph WNW16.1 kmh WNW 24.0 mph38.6 kmh 29.40 in995.6 mb 0.00 in0.0 mm 0.00 in0.0 mm 0.04 in1.0 mm
09:50 AM 48.3°F9.1°C 36.7°F2.6°C 64% 9.0 mph WNW14.5 kmh WNW 29.0 mph46.7 kmh 29.38 in994.9 mb 0.00 in0.0 mm 0.00 in0.0 mm 0.04 in1.0 mm
09:40 AM 48.2°F9.0°C 37.0°F2.8°C 65% 9.0 mph NW14.5 kmh NW 24.0 mph38.6 kmh 29.36 in994.2 mb 0.00 in0.0 mm 0.00 in0.0 mm 0.04 in1.0 mm
09:30 AM 48.5°F9.2°C 38.1°F3.4°C 67% 7.0 mph WNW11.3 kmh WNW 22.0 mph35.4 kmh 29.36 in994.2 mb 0.00 in0.0 mm 0.00 in0.0 mm 0.04 in1.0 mm
09:20 AM 49.4°F9.7°C 38.1°F3.4°C 65% 8.0 mph WNW12.9 kmh WNW 32.0 mph51.5 kmh 29.35 in993.9 mb 0.00 in0.0 mm 0.00 in0.0 mm 0.04 in1.0 mm
09:10 AM 50.5°F10.3°C 41.1°F5.1°C 70% 9.0 mph W14.5 kmh W 22.0 mph35.4 kmh 29.33 in993.2 mb 0.00 in0.0 mm 0.00 in0.0 mm 0.04 in1.0 mm
09:00 AM 50.6°F10.3°C 41.6°F5.3°C 71% 3.0 mph WNW4.8 kmh WNW 17.0 mph27.4 kmh 29.31 in992.6 mb 0.00 in0.0 mm 0.00 in0.0 mm 0.04 in1.0 mm
08:50 AM 51.1°F10.6°C 42.4°F5.8°C 72% 3.0 mph W4.8 kmh W 17.0 mph27.4 kmh 29.31 in992.6 mb 0.00 in0.0 mm 0.00 in0.0 mm 0.04 in1.0 mm
08:40 AM 51.6°F10.9°C 41.8°F5.4°C 69% 6.0 mph WNW9.7 kmh WNW 12.0 mph19.3 kmh 29.29 in991.9 mb 0.00 in0.0 mm 0.00 in0.0 mm 0.04 in1.0 mm
08:30 AM 51.9°F11.1°C 42.1°F5.6°C 69% 8.0 mph WSW12.9 kmh WSW 20.0 mph32.2 kmh 29.28 in991.5 mb 0.00 in0.0 mm 0.00 in0.0 mm 0.04 in1.0 mm
08:20 AM 52.2°F11.2°C 42.7°F5.9°C 70% 3.0 mph W4.8 kmh W 19.0 mph30.6 kmh 29.27 in991.2 mb 0.00 in0.0 mm 0.00 in0.0 mm 0.04 in1.0 mm
08:10 AM 52.7°F11.5°C 43.6°F6.4°C 71% 8.0 mph WNW12.9 kmh WNW 21.0 mph33.8 kmh 29.25 in990.5 mb 0.00 in0.0 mm 0.00 in0.0 mm 0.04 in1.0 mm
08:00 AM 53.4°F11.9°C 45.3°F7.4°C 74% 8.0 mph WSW12.9 kmh WSW 20.0 mph32.2 kmh 29.25 in990.5 mb 0.00 in0.0 mm 0.00 in0.0 mm 0.04 in1.0 mm
07:50 AM 54.1°F12.3°C 45.6°F7.6°C 73% 11.0 mph WNW17.7 kmh WNW 26.0 mph41.8 kmh 29.23 in989.8 mb 0.00 in0.0 mm 0.00 in0.0 mm 0.04 in1.0 mm
07:40 AM 55.2°F12.9°C 47.1°F8.4°C 74% 10.0 mph NW16.1 kmh NW 29.0 mph46.7 kmh 29.22 in989.5 mb 0.00 in0.0 mm 0.00 in0.0 mm 0.04 in1.0 mm
07:30 AM 56.0°F13.3°C 50.9°F10.5°C 83% 6.0 mph WNW9.7 kmh WNW 30.0 mph48.3 kmh 29.21 in989.2 mb 0.00 in0.0 mm 0.00 in0.0 mm 0.04 in1.0 mm
07:20 AM 55.7°F13.2°C 52.2°F11.2°C 88% 6.0 mph SW9.7 kmh SW 22.0 mph35.4 kmh 29.19 in988.5 mb 0.00 in0.0 mm 0.00 in0.0 mm 0.04 in1.0 mm
07:10 AM 55.3°F12.9°C 53.3°F11.8°C 93% 4.0 mph SW6.4 kmh SW 11.0 mph17.7 kmh 29.19 in988.5 mb 0.00 in0.0 mm 0.00 in0.0 mm 0.04 in1.0 mm
07:00 AM 55.4°F13.0°C 54.3°F12.4°C 96% 2.0 mph WSW3.2 kmh WSW 16.0 mph25.7 kmh 29.18 in988.1 mb 0.00 in0.0 mm 0.00 in0.0 mm 0.04 in1.0 mm
06:50 AM 55.5°F13.1°C 54.7°F12.6°C 97% 5.0 mph SW8.0 kmh SW 15.0 mph24.1 kmh 29.17 in987.8 mb 0.00 in0.0 mm 0.00 in0.0 mm 0.04 in1.0 mm
06:40 AM 55.5°F13.1°C 54.7°F12.6°C 97% 5.0 mph SW8.0 kmh SW 12.0 mph19.3 kmh 29.16 in987.5 mb 0.01 in0.3 mm 0.00 in0.0 mm 0.04 in1.0 mm
06:30 AM 55.6°F13.1°C 54.8°F12.7°C 97% 4.0 mph WSW6.4 kmh WSW 13.0 mph20.9 kmh 29.16 in987.5 mb 0.01 in0.3 mm 0.00 in0.0 mm 0.04 in1.0 mm
06:20 AM 55.5°F13.1°C 54.7°F12.6°C 97% 4.0 mph WSW6.4 kmh WSW 15.0 mph24.1 kmh 29.17 in987.8 mb 0.01 in0.3 mm 0.00 in0.0 mm 0.04 in1.0 mm
06:10 AM 55.3°F12.9°C 54.7°F12.6°C 98% 5.0 mph SW8.0 kmh SW 17.0 mph27.4 kmh 29.16 in987.5 mb 0.01 in0.3 mm 0.00 in0.0 mm 0.04 in1.0 mm
06:00 AM 55.2°F12.9°C 54.6°F12.6°C 98% 3.0 mph SW4.8 kmh SW 13.0 mph20.9 kmh 29.16 in987.5 mb 0.01 in0.3 mm 0.00 in0.0 mm 0.04 in1.0 mm
05:50 AM 55.2°F12.9°C 54.4°F12.4°C 97% 5.0 mph SSW8.0 kmh SSW 19.0 mph30.6 kmh 29.18 in988.1 mb 0.01 in0.3 mm 0.06 in1.5 mm 0.04 in1.0 mm
05:40 AM 54.3°F12.4°C 53.5°F11.9°C 97% 5.0 mph SW8.0 kmh SW 16.0 mph25.7 kmh 29.17 in987.8 mb 0.00 in0.0 mm 0.00 in0.0 mm 0.03 in0.8 mm
05:30 AM 52.6°F11.4°C 51.8°F11.0°C 97% 5.0 mph SW8.0 kmh SW 18.0 mph29.0 kmh 29.19 in988.5 mb 0.00 in0.0 mm 0.00 in0.0 mm 0.03 in0.8 mm
05:20 AM 47.8°F8.8°C 47.0°F8.3°C 97% 5.0 mph SW8.0 kmh SW 10.0 mph16.1 kmh 29.20 in988.8 mb 0.00 in0.0 mm 0.00 in0.0 mm 0.03 in0.8 mm
05:10 AM 45.1°F7.3°C 44.3°F6.8°C 97% 2.0 mph SW3.2 kmh SW 5.0 mph8.0 kmh 29.21 in989.2 mb 0.00 in0.0 mm 0.00 in0.0 mm 0.03 in0.8 mm
05:00 AM 44.2°F6.8°C 43.4°F6.3°C 97% Calm Calm 2.0 mph3.2 kmh 29.23 in989.8 mb 0.00 in0.0 mm 0.00 in0.0 mm 0.03 in0.8 mm
04:50 AM 43.6°F6.4°C 42.8°F6.0°C 97% Calm Calm 1.0 mph1.6 kmh 29.22 in989.5 mb 0.00 in0.0 mm 0.00 in0.0 mm 0.03 in0.8 mm
04:40 AM 43.4°F6.3°C 42.6°F5.9°C 97% Calm Calm 1.0 mph1.6 kmh 29.20 in988.8 mb 0.00 in0.0 mm 0.00 in0.0 mm 0.03 in0.8 mm
04:30 AM 43.2°F6.2°C 42.4°F5.8°C 97% Calm Calm 1.0 mph1.6 kmh 29.21 in989.2 mb 0.00 in0.0 mm 0.00 in0.0 mm 0.03 in0.8 mm
04:20 AM 42.7°F5.9°C 41.9°F5.5°C 97% Calm Calm 1.0 mph1.6 kmh 29.22 in989.5 mb 0.00 in0.0 mm 0.00 in0.0 mm 0.03 in0.8 mm
04:10 AM 42.5°F5.8°C 41.7°F5.4°C 97% Calm Calm 1.0 mph1.6 kmh 29.22 in989.5 mb 0.00 in0.0 mm 0.00 in0.0 mm 0.03 in0.8 mm
04:00 AM 42.4°F5.8°C 41.6°F5.3°C 97% Calm Calm -- 29.23 in989.8 mb 0.01 in0.3 mm 0.00 in0.0 mm 0.03 in0.8 mm
03:50 AM 42.2°F5.7°C 41.4°F5.2°C 97% Calm Calm -- 29.25 in990.5 mb 0.01 in0.3 mm 0.00 in0.0 mm 0.03 in0.8 mm
03:40 AM 42.1°F5.6°C 41.3°F5.2°C 97% Calm Calm -- 29.24 in990.2 mb 0.01 in0.3 mm 0.00 in0.0 mm 0.03 in0.8 mm
03:30 AM 42.0°F5.6°C 40.9°F4.9°C 96% Calm Calm 1.0 mph1.6 kmh 29.25 in990.5 mb 0.01 in0.3 mm 0.00 in0.0 mm 0.03 in0.8 mm
03:20 AM 42.0°F5.6°C 40.9°F4.9°C 96% Calm Calm 1.0 mph1.6 kmh 29.26 in990.9 mb 0.01 in0.3 mm 0.00 in0.0 mm 0.03 in0.8 mm
03:10 AM 41.9°F5.5°C 41.1°F5.1°C 97% Calm Calm -- 29.26 in990.9 mb 0.01 in0.3 mm 0.06 in1.5 mm 0.03 in0.8 mm
03:00 AM 41.7°F5.4°C 40.9°F4.9°C 97% Calm Calm -- 29.28 in991.5 mb 0.00 in0.0 mm 0.00 in0.0 mm 0.02 in0.5 mm
02:50 AM 41.7°F5.4°C 40.9°F4.9°C 97% Calm Calm -- 29.28 in991.5 mb 0.00 in0.0 mm 0.00 in0.0 mm 0.02 in0.5 mm
02:40 AM 41.6°F5.3°C 40.5°F4.7°C 96% Calm Calm -- 29.28 in991.5 mb 0.01 in0.3 mm 0.00 in0.0 mm 0.02 in0.5 mm
02:30 AM 41.5°F5.3°C 40.4°F4.7°C 96% Calm Calm -- 29.29 in991.9 mb 0.01 in0.3 mm 0.00 in0.0 mm 0.02 in0.5 mm
02:20 AM 41.3°F5.2°C 40.2°F4.6°C 96% Calm Calm -- 29.30 in992.2 mb 0.01 in0.3 mm 0.00 in0.0 mm 0.02 in0.5 mm
02:10 AM 41.2°F5.1°C 40.4°F4.7°C 97% Calm Calm -- 29.29 in991.9 mb 0.01 in0.3 mm 0.00 in0.0 mm 0.02 in0.5 mm
02:00 AM 41.1°F5.1°C 40.0°F4.4°C 96% Calm Calm -- 29.30 in992.2 mb 0.02 in0.5 mm 0.01 in0.3 mm 0.02 in0.5 mm
01:50 AM 41.0°F5.0°C 39.9°F4.4°C 96% Calm Calm -- 29.30 in992.2 mb 0.01 in0.3 mm 0.00 in0.0 mm 0.01 in0.3 mm
01:40 AM 41.0°F5.0°C 39.9°F4.4°C 96% Calm Calm -- 29.31 in992.6 mb 0.01 in0.3 mm 0.00 in0.0 mm 0.01 in0.3 mm
01:30 AM 40.9°F4.9°C 39.8°F4.3°C 96% Calm Calm -- 29.32 in992.9 mb 0.01 in0.3 mm 0.00 in0.0 mm 0.01 in0.3 mm
01:20 AM 40.8°F4.9°C 39.7°F4.3°C 96% Calm Calm -- 29.32 in992.9 mb 0.01 in0.3 mm 0.00 in0.0 mm 0.01 in0.3 mm
01:10 AM 40.7°F4.8°C 39.6°F4.2°C 96% Calm Calm 1.0 mph1.6 kmh 29.33 in993.2 mb 0.01 in0.3 mm 0.06 in1.5 mm 0.01 in0.3 mm
01:00 AM 40.6°F4.8°C 39.5°F4.2°C 96% Calm Calm -- 29.33 in993.2 mb 0.00 in0.0 mm 0.00 in0.0 mm 0.00 in0.0 mm
12:50 AM 40.5°F4.7°C 39.5°F4.2°C 96% Calm Calm -- 29.34 in993.6 mb 0.00 in0.0 mm 0.00 in0.0 mm 0.00 in0.0 mm
12:40 AM 40.5°F4.7°C 39.5°F4.2°C 96% Calm Calm -- 29.35 in993.9 mb 0.00 in0.0 mm 0.00 in0.0 mm 0.00 in0.0 mm
12:30 AM 40.6°F4.8°C 39.5°F4.2°C 96% Calm Calm -- 29.36 in994.2 mb 0.00 in0.0 mm 0.00 in0.0 mm 0.00 in0.0 mm
12:20 AM 40.6°F4.8°C 39.5°F4.2°C 96% Calm Calm -- 29.37 in994.6 mb 0.00 in0.0 mm 0.00 in0.0 mm 0.00 in0.0 mm
12:10 AM 40.6°F4.8°C 39.5°F4.2°C 96% Calm Calm -- 29.37 in994.6 mb 0.00 in0.0 mm 0.00 in0.0 mm 0.00 in0.0 mm
12:00 AM 40.6°F4.8°C 39.5°F4.2°C 96% Calm Calm -- 29.38 in994.9 mb 0.00 in0.0 mm 0.00 in0.0 mm 0.00 in0.0 mm